sensor_id;sensor_type;location;lat;lon;timestamp;P1;durP1;ratioP1;P2;durP2;ratioP2
22794;SDS011;11564;50.920;11.612;2023-05-23T00:01:41;15.50;;;14.00;;
22794;SDS011;11564;50.920;11.612;2023-05-23T00:04:07;14.70;;;13.30;;
22794;SDS011;11564;50.920;11.612;2023-05-23T00:06:33;15.23;;;13.20;;
22794;SDS011;11564;50.920;11.612;2023-05-23T00:09:00;15.30;;;13.17;;
22794;SDS011;11564;50.920;11.612;2023-05-23T00:11:26;15.47;;;13.70;;
22794;SDS011;11564;50.920;11.612;2023-05-23T00:13:53;16.23;;;12.93;;
22794;SDS011;11564;50.920;11.612;2023-05-23T00:16:19;14.77;;;13.33;;
22794;SDS011;11564;50.920;11.612;2023-05-23T00:18:45;13.97;;;12.67;;
22794;SDS011;11564;50.920;11.612;2023-05-23T00:21:11;19.57;;;13.60;;
22794;SDS011;11564;50.920;11.612;2023-05-23T00:23:39;16.33;;;13.67;;
22794;SDS011;11564;50.920;11.612;2023-05-23T00:26:08;14.10;;;12.40;;
22794;SDS011;11564;50.920;11.612;2023-05-23T00:28:35;19.13;;;13.00;;
22794;SDS011;11564;50.920;11.612;2023-05-23T00:31:01;17.60;;;14.40;;
22794;SDS011;11564;50.920;11.612;2023-05-23T00:33:27;15.00;;;13.50;;
22794;SDS011;11564;50.920;11.612;2023-05-23T00:35:53;18.93;;;13.53;;
22794;SDS011;11564;50.920;11.612;2023-05-23T00:38:19;14.43;;;12.87;;
22794;SDS011;11564;50.920;11.612;2023-05-23T00:40:45;15.30;;;13.80;;
22794;SDS011;11564;50.920;11.612;2023-05-23T00:43:12;13.37;;;11.97;;
22794;SDS011;11564;50.920;11.612;2023-05-23T00:45:37;15.00;;;13.37;;
22794;SDS011;11564;50.920;11.612;2023-05-23T00:48:03;15.77;;;14.17;;
22794;SDS011;11564;50.920;11.612;2023-05-23T00:50:29;19.57;;;13.23;;
22794;SDS011;11564;50.920;11.612;2023-05-23T00:52:55;15.30;;;13.70;;
22794;SDS011;11564;50.920;11.612;2023-05-23T00:55:23;13.70;;;12.30;;
22794;SDS011;11564;50.920;11.612;2023-05-23T00:57:50;17.80;;;13.20;;
22794;SDS011;11564;50.920;11.612;2023-05-23T01:00:19;16.90;;;15.03;;
22794;SDS011;11564;50.920;11.612;2023-05-23T01:02:46;15.60;;;13.40;;
22794;SDS011;11564;50.920;11.612;2023-05-23T01:05:16;18.87;;;14.73;;
22794;SDS011;11564;50.920;11.612;2023-05-23T01:07:43;15.83;;;14.10;;
22794;SDS011;11564;50.920;11.612;2023-05-23T01:10:09;16.67;;;14.60;;
22794;SDS011;11564;50.920;11.612;2023-05-23T01:12:48;16.83;;;14.90;;
22794;SDS011;11564;50.920;11.612;2023-05-23T01:15:37;17.70;;;14.37;;
22794;SDS011;11564;50.920;11.612;2023-05-23T01:21:23;15.20;;;13.60;;
22794;SDS011;11564;50.920;11.612;2023-05-23T01:29:35;16.40;;;14.37;;
22794;SDS011;11564;50.920;11.612;2023-05-23T01:32:06;14.50;;;13.00;;
22794;SDS011;11564;50.920;11.612;2023-05-23T01:34:35;15.97;;;14.27;;
22794;SDS011;11564;50.920;11.612;2023-05-23T01:37:01;18.30;;;13.63;;
22794;SDS011;11564;50.920;11.612;2023-05-23T01:39:33;13.70;;;12.27;;
22794;SDS011;11564;50.920;11.612;2023-05-23T01:41:59;14.77;;;13.07;;
22794;SDS011;11564;50.920;11.612;2023-05-23T01:44:25;15.60;;;13.57;;
22794;SDS011;11564;50.920;11.612;2023-05-23T01:46:51;18.70;;;13.17;;
22794;SDS011;11564;50.920;11.612;2023-05-23T01:49:16;14.67;;;13.23;;
22794;SDS011;11564;50.920;11.612;2023-05-23T01:51:43;14.10;;;12.60;;
22794;SDS011;11564;50.920;11.612;2023-05-23T01:54:10;18.53;;;12.90;;
22794;SDS011;11564;50.920;11.612;2023-05-23T01:56:36;14.00;;;12.53;;
22794;SDS011;11564;50.920;11.612;2023-05-23T01:59:03;16.03;;;12.40;;
22794;SDS011;11564;50.920;11.612;2023-05-23T02:01:28;15.57;;;13.50;;
22794;SDS011;11564;50.920;11.612;2023-05-23T02:03:55;14.70;;;13.17;;
22794;SDS011;11564;50.920;11.612;2023-05-23T02:06:20;14.00;;;12.50;;
22794;SDS011;11564;50.920;11.612;2023-05-23T02:08:46;16.83;;;14.13;;
22794;SDS011;11564;50.920;11.612;2023-05-23T02:11:12;15.70;;;14.10;;
22794;SDS011;11564;50.920;11.612;2023-05-23T02:13:37;18.90;;;12.70;;
22794;SDS011;11564;50.920;11.612;2023-05-23T02:16:03;13.03;;;11.73;;
22794;SDS011;11564;50.920;11.612;2023-05-23T02:18:29;13.70;;;12.33;;
22794;SDS011;11564;50.920;11.612;2023-05-23T02:20:55;15.03;;;13.50;;
22794;SDS011;11564;50.920;11.612;2023-05-23T02:23:21;13.63;;;12.40;;
22794;SDS011;11564;50.920;11.612;2023-05-23T02:25:46;14.60;;;13.07;;
22794;SDS011;11564;50.920;11.612;2023-05-23T02:28:12;13.07;;;11.70;;
22794;SDS011;11564;50.920;11.612;2023-05-23T02:30:38;12.90;;;11.70;;
22794;SDS011;11564;50.920;11.612;2023-05-23T02:33:04;14.50;;;13.00;;
22794;SDS011;11564;50.920;11.612;2023-05-23T02:35:30;14.53;;;12.77;;
22794;SDS011;11564;50.920;11.612;2023-05-23T02:37:56;13.23;;;11.47;;
22794;SDS011;11564;50.920;11.612;2023-05-23T02:40:22;14.70;;;12.57;;
22794;SDS011;11564;50.920;11.612;2023-05-23T02:42:47;18.00;;;12.23;;
22794;SDS011;11564;50.920;11.612;2023-05-23T02:45:15;13.27;;;11.97;;
22794;SDS011;11564;50.920;11.612;2023-05-23T02:47:41;14.70;;;12.17;;
22794;SDS011;11564;50.920;11.612;2023-05-23T02:50:06;14.40;;;12.90;;
22794;SDS011;11564;50.920;11.612;2023-05-23T02:52:32;12.17;;;10.87;;
22794;SDS011;11564;50.920;11.612;2023-05-23T02:54:58;13.00;;;11.70;;
22794;SDS011;11564;50.920;11.612;2023-05-23T02:57:23;13.60;;;11.10;;
22794;SDS011;11564;50.920;11.612;2023-05-23T02:59:49;19.83;;;11.70;;
22794;SDS011;11564;50.920;11.612;2023-05-23T03:02:15;12.70;;;11.33;;
22794;SDS011;11564;50.920;11.612;2023-05-23T03:04:40;15.40;;;11.23;;
22794;SDS011;11564;50.920;11.612;2023-05-23T03:07:06;15.83;;;11.10;;
22794;SDS011;11564;50.920;11.612;2023-05-23T03:09:33;13.23;;;11.60;;
22794;SDS011;11564;50.920;11.612;2023-05-23T03:11:59;12.67;;;11.47;;
22794;SDS011;11564;50.920;11.612;2023-05-23T03:14:25;13.00;;;11.70;;
22794;SDS011;11564;50.920;11.612;2023-05-23T03:16:50;14.07;;;12.20;;
22794;SDS011;11564;50.920;11.612;2023-05-23T03:19:16;15.10;;;12.53;;
22794;SDS011;11564;50.920;11.612;2023-05-23T03:21:41;13.20;;;11.90;;
22794;SDS011;11564;50.920;11.612;2023-05-23T03:24:08;17.80;;;12.70;;
22794;SDS011;11564;50.920;11.612;2023-05-23T03:26:33;17.40;;;10.93;;
22794;SDS011;11564;50.920;11.612;2023-05-23T03:28:59;12.33;;;11.07;;
22794;SDS011;11564;50.920;11.612;2023-05-23T03:31:25;13.30;;;12.00;;
22794;SDS011;11564;50.920;11.612;2023-05-23T03:33:50;12.93;;;11.37;;
22794;SDS011;11564;50.920;11.612;2023-05-23T03:36:17;13.83;;;10.97;;
22794;SDS011;11564;50.920;11.612;2023-05-23T03:38:43;12.20;;;10.63;;
22794;SDS011;11564;50.920;11.612;2023-05-23T03:41:08;14.53;;;12.13;;
22794;SDS011;11564;50.920;11.612;2023-05-23T03:43:34;16.60;;;12.70;;
22794;SDS011;11564;50.920;11.612;2023-05-23T03:45:59;13.70;;;12.20;;
22794;SDS011;11564;50.920;11.612;2023-05-23T03:48:25;14.10;;;12.60;;
22794;SDS011;11564;50.920;11.612;2023-05-23T03:50:51;15.33;;;12.50;;
22794;SDS011;11564;50.920;11.612;2023-05-23T03:53:16;14.90;;;11.23;;
22794;SDS011;11564;50.920;11.612;2023-05-23T03:55:42;14.67;;;12.00;;
22794;SDS011;11564;50.920;11.612;2023-05-23T03:58:07;13.33;;;11.83;;
22794;SDS011;11564;50.920;11.612;2023-05-23T04:00:33;15.73;;;12.67;;
22794;SDS011;11564;50.920;11.612;2023-05-23T04:02:58;15.83;;;13.30;;
22794;SDS011;11564;50.920;11.612;2023-05-23T04:05:24;14.23;;;12.67;;
22794;SDS011;11564;50.920;11.612;2023-05-23T04:07:50;16.33;;;12.33;;
22794;SDS011;11564;50.920;11.612;2023-05-23T04:10:16;15.20;;;12.60;;
22794;SDS011;11564;50.920;11.612;2023-05-23T04:12:42;17.80;;;12.30;;
22794;SDS011;11564;50.920;11.612;2023-05-23T04:15:08;13.70;;;12.30;;
22794;SDS011;11564;50.920;11.612;2023-05-23T04:17:34;14.10;;;12.33;;
22794;SDS011;11564;50.920;11.612;2023-05-23T04:19:59;14.50;;;12.17;;
22794;SDS011;11564;50.920;11.612;2023-05-23T04:22:25;13.00;;;11.60;;
22794;SDS011;11564;50.920;11.612;2023-05-23T04:24:51;12.80;;;11.50;;
22794;SDS011;11564;50.920;11.612;2023-05-23T04:27:16;13.47;;;11.50;;
22794;SDS011;11564;50.920;11.612;2023-05-23T04:29:42;18.83;;;13.33;;
22794;SDS011;11564;50.920;11.612;2023-05-23T04:32:08;16.13;;;10.73;;
22794;SDS011;11564;50.920;11.612;2023-05-23T04:34:34;19.33;;;12.30;;
22794;SDS011;11564;50.920;11.612;2023-05-23T04:37:00;13.67;;;12.17;;
22794;SDS011;11564;50.920;11.612;2023-05-23T04:39:29;19.07;;;12.73;;
22794;SDS011;11564;50.920;11.612;2023-05-23T04:41:54;14.73;;;12.30;;
22794;SDS011;11564;50.920;11.612;2023-05-23T04:44:21;13.37;;;11.67;;
22794;SDS011;11564;50.920;11.612;2023-05-23T04:46:47;15.40;;;12.80;;
22794;SDS011;11564;50.920;11.612;2023-05-23T04:49:14;21.80;;;13.07;;
22794;SDS011;11564;50.920;11.612;2023-05-23T04:51:40;21.67;;;13.30;;
22794;SDS011;11564;50.920;11.612;2023-05-23T04:54:06;14.70;;;13.00;;
22794;SDS011;11564;50.920;11.612;2023-05-23T04:56:32;17.93;;;14.33;;
22794;SDS011;11564;50.920;11.612;2023-05-23T04:58:58;22.03;;;13.50;;
22794;SDS011;11564;50.920;11.612;2023-05-23T05:01:24;17.20;;;14.63;;
22794;SDS011;11564;50.920;11.612;2023-05-23T05:03:50;16.13;;;14.43;;
22794;SDS011;11564;50.920;11.612;2023-05-23T05:06:16;15.43;;;13.60;;
22794;SDS011;11564;50.920;11.612;2023-05-23T05:08:42;14.73;;;13.23;;
22794;SDS011;11564;50.920;11.612;2023-05-23T05:11:08;19.70;;;15.10;;
22794;SDS011;11564;50.920;11.612;2023-05-23T05:13:34;16.90;;;14.60;;
22794;SDS011;11564;50.920;11.612;2023-05-23T05:16:00;15.70;;;14.10;;
22794;SDS011;11564;50.920;11.612;2023-05-23T05:18:27;19.80;;;15.53;;
22794;SDS011;11564;50.920;11.612;2023-05-23T05:20:53;18.13;;;14.37;;
22794;SDS011;11564;50.920;11.612;2023-05-23T05:23:25;16.10;;;13.60;;
22794;SDS011;11564;50.920;11.612;2023-05-23T05:25:54;21.97;;;15.43;;
22794;SDS011;11564;50.920;11.612;2023-05-23T05:28:20;19.70;;;15.63;;
22794;SDS011;11564;50.920;11.612;2023-05-23T05:30:46;18.37;;;14.83;;
22794;SDS011;11564;50.920;11.612;2023-05-23T05:33:12;21.00;;;16.50;;
22794;SDS011;11564;50.920;11.612;2023-05-23T05:35:38;16.70;;;14.60;;
22794;SDS011;11564;50.920;11.612;2023-05-23T05:38:04;19.43;;;13.50;;
22794;SDS011;11564;50.920;11.612;2023-05-23T05:40:33;19.40;;;14.67;;
22794;SDS011;11564;50.920;11.612;2023-05-23T05:42:58;17.60;;;13.87;;
22794;SDS011;11564;50.920;11.612;2023-05-23T05:45:24;22.97;;;15.70;;
22794;SDS011;11564;50.920;11.612;2023-05-23T05:47:50;17.60;;;15.80;;
22794;SDS011;11564;50.920;11.612;2023-05-23T05:50:15;20.50;;;15.40;;
22794;SDS011;11564;50.920;11.612;2023-05-23T05:52:42;20.10;;;16.70;;
22794;SDS011;11564;50.920;11.612;2023-05-23T05:55:08;23.53;;;17.43;;
22794;SDS011;11564;50.920;11.612;2023-05-23T05:57:40;23.57;;;18.60;;
22794;SDS011;11564;50.920;11.612;2023-05-23T06:00:06;23.00;;;17.77;;
22794;SDS011;11564;50.920;11.612;2023-05-23T06:02:38;29.90;;;20.93;;
22794;SDS011;11564;50.920;11.612;2023-05-23T06:05:10;28.17;;;19.37;;
22794;SDS011;11564;50.920;11.612;2023-05-23T06:07:40;28.17;;;19.10;;
22794;SDS011;11564;50.920;11.612;2023-05-23T06:10:06;28.97;;;19.83;;
22794;SDS011;11564;50.920;11.612;2023-05-23T06:12:32;25.50;;;19.30;;
22794;SDS011;11564;50.920;11.612;2023-05-23T06:14:58;25.37;;;20.23;;
22794;SDS011;11564;50.920;11.612;2023-05-23T06:17:24;24.77;;;19.87;;
22794;SDS011;11564;50.920;11.612;2023-05-23T06:19:50;18.70;;;16.50;;
22794;SDS011;11564;50.920;11.612;2023-05-23T06:22:16;20.67;;;15.13;;
22794;SDS011;11564;50.920;11.612;2023-05-23T06:24:42;22.40;;;15.47;;
22794;SDS011;11564;50.920;11.612;2023-05-23T06:27:08;19.40;;;16.13;;
22794;SDS011;11564;50.920;11.612;2023-05-23T06:29:33;18.80;;;13.30;;
22794;SDS011;11564;50.920;11.612;2023-05-23T06:32:02;17.93;;;13.73;;
22794;SDS011;11564;50.920;11.612;2023-05-23T06:34:27;20.20;;;14.13;;
22794;SDS011;11564;50.920;11.612;2023-05-23T06:36:54;15.63;;;12.80;;
22794;SDS011;11564;50.920;11.612;2023-05-23T06:39:19;13.77;;;12.03;;
22794;SDS011;11564;50.920;11.612;2023-05-23T06:41:45;14.80;;;11.67;;
22794;SDS011;11564;50.920;11.612;2023-05-23T06:44:11;12.87;;;10.57;;
22794;SDS011;11564;50.920;11.612;2023-05-23T06:46:37;12.33;;;10.53;;
22794;SDS011;11564;50.920;11.612;2023-05-23T06:49:03;12.37;;;11.03;;
22794;SDS011;11564;50.920;11.612;2023-05-23T06:51:28;12.40;;;11.10;;
22794;SDS011;11564;50.920;11.612;2023-05-23T06:53:55;11.13;;;9.97;;
22794;SDS011;11564;50.920;11.612;2023-05-23T06:56:21;13.10;;;9.70;;
22794;SDS011;11564;50.920;11.612;2023-05-23T06:58:47;17.30;;;9.80;;
22794;SDS011;11564;50.920;11.612;2023-05-23T07:01:13;10.40;;;8.40;;
22794;SDS011;11564;50.920;11.612;2023-05-23T07:03:38;12.60;;;9.90;;
22794;SDS011;11564;50.920;11.612;2023-05-23T07:06:05;15.90;;;8.87;;
22794;SDS011;11564;50.920;11.612;2023-05-23T07:08:32;10.30;;;9.17;;
22794;SDS011;11564;50.920;11.612;2023-05-23T07:10:57;9.10;;;8.20;;
22794;SDS011;11564;50.920;11.612;2023-05-23T07:13:23;9.57;;;8.60;;
22794;SDS011;11564;50.920;11.612;2023-05-23T07:15:49;10.80;;;8.50;;
22794;SDS011;11564;50.920;11.612;2023-05-23T07:18:14;12.53;;;7.60;;
22794;SDS011;11564;50.920;11.612;2023-05-23T07:20:40;13.00;;;8.70;;
22794;SDS011;11564;50.920;11.612;2023-05-23T07:23:06;9.93;;;8.37;;
22794;SDS011;11564;50.920;11.612;2023-05-23T07:25:31;17.60;;;9.17;;
22794;SDS011;11564;50.920;11.612;2023-05-23T07:27:57;11.80;;;9.10;;
22794;SDS011;11564;50.920;11.612;2023-05-23T07:30:22;12.07;;;8.60;;
22794;SDS011;11564;50.920;11.612;2023-05-23T07:32:48;11.70;;;8.47;;
22794;SDS011;11564;50.920;11.612;2023-05-23T07:35:16;9.93;;;9.00;;
22794;SDS011;11564;50.920;11.612;2023-05-23T07:37:42;11.10;;;7.83;;
22794;SDS011;11564;50.920;11.612;2023-05-23T07:40:08;8.27;;;7.53;;
22794;SDS011;11564;50.920;11.612;2023-05-23T07:42:34;8.07;;;7.27;;
22794;SDS011;11564;50.920;11.612;2023-05-23T07:45:00;10.50;;;7.10;;
22794;SDS011;11564;50.920;11.612;2023-05-23T07:47:26;8.27;;;6.73;;
22794;SDS011;11564;50.920;11.612;2023-05-23T07:49:52;8.90;;;6.50;;
22794;SDS011;11564;50.920;11.612;2023-05-23T07:52:18;10.13;;;6.60;;
22794;SDS011;11564;50.920;11.612;2023-05-23T07:54:43;7.30;;;6.57;;
22794;SDS011;11564;50.920;11.612;2023-05-23T07:57:09;5.93;;;5.43;;
22794;SDS011;11564;50.920;11.612;2023-05-23T07:59:35;6.93;;;6.20;;
22794;SDS011;11564;50.920;11.612;2023-05-23T08:02:01;8.30;;;5.93;;
22794;SDS011;11564;50.920;11.612;2023-05-23T08:04:27;5.60;;;5.10;;
22794;SDS011;11564;50.920;11.612;2023-05-23T08:06:53;5.93;;;5.20;;
22794;SDS011;11564;50.920;11.612;2023-05-23T08:09:19;5.37;;;4.87;;
22794;SDS011;11564;50.920;11.612;2023-05-23T08:11:45;9.33;;;4.70;;
22794;SDS011;11564;50.920;11.612;2023-05-23T08:14:11;7.77;;;4.73;;
22794;SDS011;11564;50.920;11.612;2023-05-23T08:16:36;5.07;;;4.57;;
22794;SDS011;11564;50.920;11.612;2023-05-23T08:19:02;5.60;;;4.10;;
22794;SDS011;11564;50.920;11.612;2023-05-23T08:21:28;6.07;;;4.50;;
22794;SDS011;11564;50.920;11.612;2023-05-23T08:23:53;3.13;;;2.60;;
22794;SDS011;11564;50.920;11.612;2023-05-23T08:26:19;3.63;;;3.33;;
22794;SDS011;11564;50.920;11.612;2023-05-23T08:28:45;4.10;;;3.37;;
22794;SDS011;11564;50.920;11.612;2023-05-23T08:31:11;4.23;;;3.83;;
22794;SDS011;11564;50.920;11.612;2023-05-23T08:33:36;3.00;;;2.80;;
22794;SDS011;11564;50.920;11.612;2023-05-23T08:36:02;3.20;;;3.00;;
22794;SDS011;11564;50.920;11.612;2023-05-23T08:38:28;2.83;;;2.63;;
22794;SDS011;11564;50.920;11.612;2023-05-23T08:40:53;2.97;;;2.30;;
22794;SDS011;11564;50.920;11.612;2023-05-23T08:43:24;2.90;;;2.70;;
22794;SDS011;11564;50.920;11.612;2023-05-23T08:45:50;3.20;;;3.00;;
22794;SDS011;11564;50.920;11.612;2023-05-23T08:48:17;2.90;;;2.70;;
22794;SDS011;11564;50.920;11.612;2023-05-23T08:50:44;5.20;;;2.40;;
22794;SDS011;11564;50.920;11.612;2023-05-23T08:53:11;2.87;;;2.67;;
22794;SDS011;11564;50.920;11.612;2023-05-23T08:55:44;3.30;;;2.77;;
22794;SDS011;11564;50.920;11.612;2023-05-23T08:58:12;3.17;;;2.87;;
22794;SDS011;11564;50.920;11.612;2023-05-23T09:00:39;3.00;;;2.63;;
22794;SDS011;11564;50.920;11.612;2023-05-23T09:03:06;3.00;;;2.80;;
22794;SDS011;11564;50.920;11.612;2023-05-23T09:05:33;3.03;;;2.83;;
22794;SDS011;11564;50.920;11.612;2023-05-23T09:07:58;2.77;;;2.43;;
22794;SDS011;11564;50.920;11.612;2023-05-23T09:10:24;2.80;;;2.60;;
22794;SDS011;11564;50.920;11.612;2023-05-23T09:12:53;2.57;;;2.37;;
22794;SDS011;11564;50.920;11.612;2023-05-23T09:15:19;2.70;;;2.50;;
22794;SDS011;11564;50.920;11.612;2023-05-23T09:17:46;3.23;;;2.90;;
22794;SDS011;11564;50.920;11.612;2023-05-23T09:20:12;4.80;;;2.80;;
22794;SDS011;11564;50.920;11.612;2023-05-23T09:22:39;3.33;;;2.63;;
22794;SDS011;11564;50.920;11.612;2023-05-23T09:25:09;2.87;;;2.60;;
22794;SDS011;11564;50.920;11.612;2023-05-23T09:27:35;3.30;;;3.10;;
22794;SDS011;11564;50.920;11.612;2023-05-23T09:30:08;3.83;;;3.53;;
22794;SDS011;11564;50.920;11.612;2023-05-23T09:32:35;3.00;;;2.80;;
22794;SDS011;11564;50.920;11.612;2023-05-23T09:35:02;3.13;;;2.93;;
22794;SDS011;11564;50.920;11.612;2023-05-23T09:37:36;3.70;;;3.40;;
22794;SDS011;11564;50.920;11.612;2023-05-23T09:40:10;4.23;;;3.17;;
22794;SDS011;11564;50.920;11.612;2023-05-23T09:42:44;3.63;;;3.43;;
22794;SDS011;11564;50.920;11.612;2023-05-23T09:45:11;4.10;;;3.30;;
22794;SDS011;11564;50.920;11.612;2023-05-23T09:47:37;6.70;;;3.40;;
22794;SDS011;11564;50.920;11.612;2023-05-23T09:50:03;3.70;;;3.50;;
22794;SDS011;11564;50.920;11.612;2023-05-23T09:52:35;5.57;;;3.47;;
22794;SDS011;11564;50.920;11.612;2023-05-23T09:55:02;3.97;;;3.37;;
22794;SDS011;11564;50.920;11.612;2023-05-23T09:57:28;3.57;;;3.27;;
22794;SDS011;11564;50.920;11.612;2023-05-23T09:59:56;4.00;;;3.57;;
22794;SDS011;11564;50.920;11.612;2023-05-23T10:08:01;5.70;;;3.40;;
22794;SDS011;11564;50.920;11.612;2023-05-23T10:10:32;3.50;;;3.20;;
22794;SDS011;11564;50.920;11.612;2023-05-23T10:13:01;3.60;;;3.30;;
22794;SDS011;11564;50.920;11.612;2023-05-23T10:15:29;3.10;;;2.90;;
22794;SDS011;11564;50.920;11.612;2023-05-23T10:18:11;4.80;;;3.70;;
22794;SDS011;11564;50.920;11.612;2023-05-23T10:20:46;4.43;;;3.67;;
22794;SDS011;11564;50.920;11.612;2023-05-23T10:23:13;6.40;;;3.77;;
22794;SDS011;11564;50.920;11.612;2023-05-23T10:25:40;3.70;;;3.40;;
22794;SDS011;11564;50.920;11.612;2023-05-23T10:28:07;4.77;;;3.70;;
22794;SDS011;11564;50.920;11.612;2023-05-23T10:30:33;5.10;;;3.30;;
22794;SDS011;11564;50.920;11.612;2023-05-23T10:32:59;6.73;;;3.20;;
22794;SDS011;11564;50.920;11.612;2023-05-23T10:37:56;3.23;;;2.93;;
22794;SDS011;11564;50.920;11.612;2023-05-23T10:45:53;4.20;;;3.80;;
22794;SDS011;11564;50.920;11.612;2023-05-23T10:48:30;4.90;;;3.87;;
22794;SDS011;11564;50.920;11.612;2023-05-23T10:53:35;3.30;;;3.10;;
22794;SDS011;11564;50.920;11.612;2023-05-23T10:56:07;4.37;;;2.90;;
22794;SDS011;11564;50.920;11.612;2023-05-23T10:58:34;2.90;;;2.70;;
22794;SDS011;11564;50.920;11.612;2023-05-23T11:01:06;3.00;;;2.80;;
22794;SDS011;11564;50.920;11.612;2023-05-23T11:03:33;4.80;;;3.30;;
22794;SDS011;11564;50.920;11.612;2023-05-23T11:06:03;4.03;;;3.00;;
22794;SDS011;11564;50.920;11.612;2023-05-23T11:08:39;3.93;;;3.37;;
22794;SDS011;11564;50.920;11.612;2023-05-23T11:11:07;3.23;;;2.90;;
22794;SDS011;11564;50.920;11.612;2023-05-23T11:16:31;3.00;;;2.80;;
22794;SDS011;11564;50.920;11.612;2023-05-23T11:21:50;2.47;;;2.30;;
22794;SDS011;11564;50.920;11.612;2023-05-23T11:24:17;4.30;;;2.10;;
22794;SDS011;11564;50.920;11.612;2023-05-23T11:26:59;2.80;;;1.73;;
22794;SDS011;11564;50.920;11.612;2023-05-23T11:29:27;3.57;;;2.17;;
22794;SDS011;11564;50.920;11.612;2023-05-23T11:31:55;2.70;;;2.20;;
22794;SDS011;11564;50.920;11.612;2023-05-23T11:34:21;2.17;;;2.07;;
22794;SDS011;11564;50.920;11.612;2023-05-23T11:36:55;3.00;;;2.10;;
22794;SDS011;11564;50.920;11.612;2023-05-23T11:39:21;2.67;;;2.50;;
22794;SDS011;11564;50.920;11.612;2023-05-23T11:42:00;2.50;;;2.30;;
22794;SDS011;11564;50.920;11.612;2023-05-23T11:44:26;8.10;;;2.90;;
22794;SDS011;11564;50.920;11.612;2023-05-23T11:47:05;5.57;;;3.10;;
22794;SDS011;11564;50.920;11.612;2023-05-23T11:49:33;3.27;;;2.57;;
22794;SDS011;11564;50.920;11.612;2023-05-23T11:52:02;2.67;;;2.47;;
22794;SDS011;11564;50.920;11.612;2023-05-23T11:54:29;4.30;;;2.50;;
22794;SDS011;11564;50.920;11.612;2023-05-23T11:56:54;4.23;;;2.73;;
22794;SDS011;11564;50.920;11.612;2023-05-23T11:59:20;2.40;;;2.20;;
22794;SDS011;11564;50.920;11.612;2023-05-23T12:01:47;6.70;;;2.93;;
22794;SDS011;11564;50.920;11.612;2023-05-23T12:04:13;3.77;;;2.60;;
22794;SDS011;11564;50.920;11.612;2023-05-23T12:06:39;3.20;;;2.67;;
22794;SDS011;11564;50.920;11.612;2023-05-23T12:09:06;2.60;;;2.47;;
22794;SDS011;11564;50.920;11.612;2023-05-23T12:11:32;2.47;;;2.23;;
22794;SDS011;11564;50.920;11.612;2023-05-23T12:13:59;3.30;;;1.90;;
22794;SDS011;11564;50.920;11.612;2023-05-23T12:16:31;3.47;;;2.07;;
22794;SDS011;11564;50.920;11.612;2023-05-23T12:18:57;4.43;;;1.67;;
22794;SDS011;11564;50.920;11.612;2023-05-23T12:21:25;3.17;;;1.90;;
22794;SDS011;11564;50.920;11.612;2023-05-23T12:23:51;2.90;;;1.90;;
22794;SDS011;11564;50.920;11.612;2023-05-23T12:26:17;4.63;;;1.77;;
22794;SDS011;11564;50.920;11.612;2023-05-23T12:28:43;1.80;;;1.70;;
22794;SDS011;11564;50.920;11.612;2023-05-23T12:31:13;1.47;;;1.37;;
22794;SDS011;11564;50.920;11.612;2023-05-23T12:33:41;1.60;;;1.50;;
22794;SDS011;11564;50.920;11.612;2023-05-23T12:36:09;1.57;;;1.47;;
22794;SDS011;11564;50.920;11.612;2023-05-23T12:38:38;1.53;;;1.00;;
22794;SDS011;11564;50.920;11.612;2023-05-23T12:41:11;2.60;;;0.90;;
22794;SDS011;11564;50.920;11.612;2023-05-23T12:43:40;1.43;;;1.23;;
22794;SDS011;11564;50.920;11.612;2023-05-23T12:46:13;9.80;;;1.30;;
22794;SDS011;11564;50.920;11.612;2023-05-23T12:48:39;1.17;;;1.00;;
22794;SDS011;11564;50.920;11.612;2023-05-23T12:51:05;0.83;;;0.77;;
22794;SDS011;11564;50.920;11.612;2023-05-23T12:53:30;2.70;;;0.67;;
22794;SDS011;11564;50.920;11.612;2023-05-23T12:55:56;0.80;;;0.70;;
22794;SDS011;11564;50.920;11.612;2023-05-23T12:58:22;0.90;;;0.90;;
22794;SDS011;11564;50.920;11.612;2023-05-23T13:00:48;4.10;;;1.50;;
22794;SDS011;11564;50.920;11.612;2023-05-23T13:03:13;5.87;;;0.90;;
22794;SDS011;11564;50.920;11.612;2023-05-23T13:05:39;1.50;;;1.00;;
22794;SDS011;11564;50.920;11.612;2023-05-23T13:08:05;0.90;;;0.60;;
22794;SDS011;11564;50.920;11.612;2023-05-23T13:10:31;0.80;;;0.60;;
22794;SDS011;11564;50.920;11.612;2023-05-23T13:12:56;1.57;;;1.17;;
22794;SDS011;11564;50.920;11.612;2023-05-23T13:15:22;1.17;;;1.07;;
22794;SDS011;11564;50.920;11.612;2023-05-23T13:17:47;1.50;;;1.20;;
22794;SDS011;11564;50.920;11.612;2023-05-23T13:20:13;1.63;;;0.93;;
22794;SDS011;11564;50.920;11.612;2023-05-23T13:22:39;1.10;;;1.00;;
22794;SDS011;11564;50.920;11.612;2023-05-23T13:25:06;3.80;;;1.20;;
22794;SDS011;11564;50.920;11.612;2023-05-23T13:27:35;1.57;;;1.47;;
22794;SDS011;11564;50.920;11.612;2023-05-23T13:30:00;2.23;;;1.30;;
22794;SDS011;11564;50.920;11.612;2023-05-23T13:32:26;1.73;;;1.63;;
22794;SDS011;11564;50.920;11.612;2023-05-23T13:34:51;1.50;;;1.40;;
22794;SDS011;11564;50.920;11.612;2023-05-23T13:37:17;1.50;;;1.40;;
22794;SDS011;11564;50.920;11.612;2023-05-23T13:39:43;3.73;;;1.67;;
22794;SDS011;11564;50.920;11.612;2023-05-23T13:42:09;6.30;;;3.10;;
22794;SDS011;11564;50.920;11.612;2023-05-23T13:44:34;2.37;;;2.17;;
22794;SDS011;11564;50.920;11.612;2023-05-23T13:47:10;2.53;;;1.87;;
22794;SDS011;11564;50.920;11.612;2023-05-23T13:49:37;13.80;;;1.90;;
22794;SDS011;11564;50.920;11.612;2023-05-23T13:52:03;1.80;;;1.70;;
22794;SDS011;11564;50.920;11.612;2023-05-23T13:54:29;1.43;;;1.33;;
22794;SDS011;11564;50.920;11.612;2023-05-23T13:56:55;1.83;;;1.73;;
22794;SDS011;11564;50.920;11.612;2023-05-23T13:59:22;2.50;;;2.10;;
22794;SDS011;11564;50.920;11.612;2023-05-23T14:01:48;3.03;;;2.57;;
22794;SDS011;11564;50.920;11.612;2023-05-23T14:04:14;4.20;;;2.20;;
22794;SDS011;11564;50.920;11.612;2023-05-23T14:06:39;2.17;;;2.07;;
22794;SDS011;11564;50.920;11.612;2023-05-23T14:09:05;2.90;;;2.70;;
22794;SDS011;11564;50.920;11.612;2023-05-23T14:11:32;2.10;;;2.00;;
22794;SDS011;11564;50.920;11.612;2023-05-23T14:13:58;2.53;;;2.37;;
22794;SDS011;11564;50.920;11.612;2023-05-23T14:16:24;2.67;;;2.47;;
22794;SDS011;11564;50.920;11.612;2023-05-23T14:18:50;4.37;;;2.80;;
22794;SDS011;11564;50.920;11.612;2023-05-23T14:21:15;4.10;;;3.70;;
22794;SDS011;11564;50.920;11.612;2023-05-23T14:23:41;4.00;;;2.83;;
22794;SDS011;11564;50.920;11.612;2023-05-23T14:26:07;5.67;;;4.33;;
22794;SDS011;11564;50.920;11.612;2023-05-23T14:28:33;4.03;;;3.37;;
22794;SDS011;11564;50.920;11.612;2023-05-23T14:30:58;5.53;;;3.33;;
22794;SDS011;11564;50.920;11.612;2023-05-23T14:33:24;3.43;;;3.13;;
22794;SDS011;11564;50.920;11.612;2023-05-23T14:35:50;4.60;;;3.07;;
22794;SDS011;11564;50.920;11.612;2023-05-23T14:38:16;2.93;;;2.73;;
22794;SDS011;11564;50.920;11.612;2023-05-23T14:40:42;4.40;;;3.30;;
22794;SDS011;11564;50.920;11.612;2023-05-23T14:43:08;3.10;;;2.73;;
22794;SDS011;11564;50.920;11.612;2023-05-23T14:45:34;6.73;;;2.70;;
22794;SDS011;11564;50.920;11.612;2023-05-23T14:48:00;3.27;;;1.97;;
22794;SDS011;11564;50.920;11.612;2023-05-23T14:50:26;3.83;;;2.87;;